createdAt,value
2023-05-19T00:01:19.131Z,8.30
2023-05-19T00:06:26.353Z,8.30
2023-05-19T00:11:30.367Z,8.30
2023-05-19T00:16:34.686Z,8.30
2023-05-19T00:21:39.602Z,8.30
2023-05-19T00:26:42.943Z,8.10
2023-05-19T00:31:46.623Z,7.90
2023-05-19T00:36:51.938Z,7.60
2023-05-19T00:41:55.428Z,7.50
2023-05-19T00:46:58.820Z,7.50
2023-05-19T00:52:06.101Z,7.30
2023-05-19T00:57:09.592Z,7.20
2023-05-19T01:02:13.369Z,7.10
2023-05-19T01:07:18.764Z,7.10
2023-05-19T01:12:22.248Z,6.90
2023-05-19T01:17:34.932Z,6.80
2023-05-19T01:23:09.042Z,6.70
2023-05-19T01:28:30.400Z,6.60
2023-05-19T01:33:35.954Z,6.70
2023-05-19T01:38:40.541Z,6.60
2023-05-19T01:43:45.161Z,6.50
2023-05-19T01:48:50.925Z,6.40
2023-05-19T01:53:54.941Z,6.40
2023-05-19T01:59:05.375Z,6.30
2023-05-19T02:04:23.613Z,6.10
2023-05-19T02:09:34.790Z,6.00
2023-05-19T02:14:45.332Z,6.00
2023-05-19T02:19:50.664Z,5.80
2023-05-19T02:24:56.541Z,5.90
2023-05-19T02:30:00.057Z,5.90
2023-05-19T02:35:05.611Z,5.80
2023-05-19T02:40:09.629Z,5.90
2023-05-19T02:45:13.181Z,5.90
2023-05-19T02:50:19.619Z,6.20
2023-05-19T02:55:23.008Z,6.40
2023-05-19T03:00:26.342Z,6.60
2023-05-19T03:05:31.512Z,6.80
2023-05-19T03:10:34.840Z,6.90
2023-05-19T03:15:38.357Z,6.90
2023-05-19T03:20:44.721Z,6.70
2023-05-19T03:25:48.361Z,6.80
2023-05-19T03:30:51.953Z,6.80
2023-05-19T03:36:00.400Z,6.70
2023-05-19T03:41:07.417Z,6.70
2023-05-19T03:46:12.074Z,6.60
2023-05-19T03:51:32.211Z,6.60
2023-05-19T03:56:43.818Z,6.80
2023-05-19T04:01:47.677Z,6.90
2023-05-19T04:06:52.468Z,7.10
2023-05-19T04:11:56.952Z,7.40
2023-05-19T04:17:01.212Z,7.70
2023-05-19T04:22:06.169Z,8.00
2023-05-19T04:27:12.135Z,8.40
2023-05-19T04:32:19.877Z,8.80
2023-05-19T04:37:25.991Z,9.00
2023-05-19T04:42:33.087Z,9.50
2023-05-19T04:47:38.291Z,9.90
2023-05-19T04:52:45.617Z,10.40
2023-05-19T04:57:49.383Z,10.70
2023-05-19T05:02:52.835Z,10.90
2023-05-19T05:07:59.532Z,11.40
2023-05-19T05:13:06.389Z,13.60
2023-05-19T05:18:11.229Z,14.10
2023-05-19T05:23:16.952Z,15.70
2023-05-19T05:28:23.004Z,15.40
2023-05-19T05:33:27.378Z,16.20
2023-05-19T05:38:32.755Z,16.30
2023-05-19T05:43:36.658Z,17.00
2023-05-19T05:48:42.793Z,16.20
2023-05-19T05:53:51.399Z,14.80
2023-05-19T05:58:55.382Z,14.10
2023-05-19T06:03:58.921Z,14.00
2023-05-19T06:09:04.618Z,13.40
2023-05-19T06:14:08.964Z,13.10
2023-05-19T06:19:38.455Z,12.80
2023-05-19T06:24:43.404Z,13.60
2023-05-19T06:29:47.900Z,14.80
2023-05-19T06:34:54.658Z,16.00
2023-05-19T06:39:59.969Z,15.50
2023-05-19T06:45:04.819Z,16.50
2023-05-19T06:50:10.583Z,19.30
2023-05-19T06:55:19.065Z,20.10
2023-05-19T07:00:23.986Z,19.60
2023-05-19T07:05:29.281Z,20.70
2023-05-19T07:10:37.067Z,20.40
2023-05-19T07:15:45.330Z,20.60
2023-05-19T07:20:51.798Z,20.30
2023-05-19T07:25:56.985Z,20.90
2023-05-19T07:31:01.499Z,21.40
2023-05-19T07:36:05.580Z,19.70
2023-05-19T07:41:10.965Z,20.20
2023-05-19T07:46:15.408Z,20.30
2023-05-19T07:51:19.455Z,20.70
2023-05-19T07:56:24.958Z,21.30
2023-05-19T08:01:30.726Z,22.50
2023-05-19T08:06:35.222Z,21.00
2023-05-19T08:11:40.143Z,21.10
2023-05-19T08:16:45.096Z,21.60
2023-05-19T08:21:49.760Z,22.80
2023-05-19T08:26:54.745Z,21.20
2023-05-19T08:31:58.554Z,21.10
2023-05-19T08:37:03.144Z,21.20
2023-05-19T08:42:09.842Z,21.70
2023-05-19T08:47:15.488Z,22.30
2023-05-19T08:52:25.340Z,23.20
2023-05-19T08:57:30.110Z,23.20
2023-05-19T09:02:34.277Z,22.70
2023-05-19T09:07:38.231Z,22.20
2023-05-19T09:12:48.779Z,21.30
2023-05-19T09:18:03.473Z,21.70
2023-05-19T09:23:07.906Z,21.50
2023-05-19T09:28:12.745Z,20.10
2023-05-19T09:33:19.501Z,19.00
2023-05-19T09:38:24.558Z,20.20
2023-05-19T09:43:29.837Z,21.10
2023-05-19T09:48:34.571Z,20.50
2023-05-19T09:53:39.169Z,20.60
2023-05-19T09:58:44.074Z,21.80
2023-05-19T10:03:47.601Z,20.90
2023-05-19T10:08:52.623Z,20.80
2023-05-19T10:13:57.914Z,19.60
2023-05-19T10:19:03.157Z,20.40
2023-05-19T10:24:06.857Z,21.80
2023-05-19T10:29:12.528Z,22.90
2023-05-19T10:34:31.096Z,23.80
2023-05-19T10:39:36.094Z,21.60
2023-05-19T10:44:46.522Z,20.70
2023-05-19T10:49:52.468Z,20.90
2023-05-19T10:54:56.216Z,20.20
2023-05-19T11:00:11.527Z,21.10
2023-05-19T11:05:20.442Z,22.20
2023-05-19T11:10:24.126Z,21.60
2023-05-19T11:15:29.205Z,21.80
2023-05-19T11:20:34.925Z,21.10
2023-05-19T11:25:43.476Z,22.40
2023-05-19T11:30:52.491Z,22.00
2023-05-19T11:36:00.104Z,23.20
2023-05-19T11:41:03.967Z,24.10
2023-05-19T11:46:09.871Z,21.90
2023-05-19T11:51:13.537Z,21.10
2023-05-19T11:56:16.913Z,21.50
2023-05-19T12:01:28.585Z,22.10
2023-05-19T12:06:32.178Z,21.20
2023-05-19T12:11:35.540Z,22.60
2023-05-19T12:16:41.153Z,21.00
2023-05-19T12:21:45.072Z,21.00
2023-05-19T12:26:50.442Z,21.40
2023-05-19T12:31:55.572Z,20.60
2023-05-19T12:36:58.967Z,20.90
2023-05-19T12:42:03.623Z,20.40
2023-05-19T12:47:09.089Z,20.30
2023-05-19T12:52:13.942Z,20.60
2023-05-19T12:57:18.433Z,21.40
2023-05-19T13:02:24.644Z,21.20
2023-05-19T13:07:28.107Z,20.90
2023-05-19T13:12:31.389Z,21.10
2023-05-19T13:17:36.802Z,22.70
2023-05-19T13:22:40.499Z,22.50
2023-05-19T13:27:46.065Z,21.00
2023-05-19T13:32:52.689Z,20.70
2023-05-19T13:37:56.734Z,20.90
2023-05-19T13:43:02.058Z,20.20
2023-05-19T13:48:07.538Z,21.60
2023-05-19T13:53:11.629Z,21.90
2023-05-19T13:58:17.008Z,20.60
2023-05-19T14:03:22.079Z,20.60
2023-05-19T14:08:26.059Z,20.40
2023-05-19T14:13:32.018Z,20.40
2023-05-19T14:18:39.102Z,20.40
2023-05-19T14:23:42.543Z,20.30
2023-05-19T14:28:46.093Z,19.50
2023-05-19T14:33:51.500Z,19.20
2023-05-19T14:38:54.892Z,19.10
2023-05-19T14:43:58.314Z,19.60
2023-05-19T14:49:03.588Z,20.30
2023-05-19T14:54:07.138Z,21.50
2023-05-19T14:59:10.718Z,20.90
2023-05-19T15:04:15.647Z,19.90
2023-05-19T15:09:19.665Z,19.80
2023-05-19T15:21:07.316Z,20.90
2023-05-19T15:26:10.787Z,20.80
2023-05-19T16:01:31.653Z,20.50
2023-05-19T16:06:34.942Z,19.90
2023-05-19T16:11:38.308Z,19.60
2023-05-19T16:16:44.691Z,19.40
2023-05-19T16:21:48.682Z,19.70
2023-05-19T16:26:53.791Z,19.40
2023-05-19T16:31:58.798Z,19.40
2023-05-19T16:37:02.741Z,19.10
2023-05-19T16:42:06.204Z,18.60
2023-05-19T16:47:11.227Z,18.20
2023-05-19T16:52:14.652Z,17.80
2023-05-19T16:57:18.601Z,17.60
2023-05-19T17:02:23.620Z,17.40
2023-05-19T17:07:29.182Z,17.30
2023-05-19T17:12:32.603Z,17.10
2023-05-19T17:17:37.335Z,17.10
2023-05-19T17:22:41.433Z,17.00
2023-05-19T17:27:44.859Z,16.80
2023-05-19T17:32:50.064Z,16.70
2023-05-19T17:37:53.637Z,16.60
2023-05-19T17:42:57.124Z,16.60
2023-05-19T17:48:02.254Z,16.60
2023-05-19T17:53:06.571Z,16.50
2023-05-19T17:58:10.418Z,16.40
2023-05-19T18:03:16.427Z,16.40
2023-05-19T18:08:20.894Z,16.50
2023-05-19T18:13:26.454Z,16.40
2023-05-19T18:18:31.382Z,16.30
2023-05-19T18:23:34.751Z,16.00
2023-05-19T18:28:38.314Z,15.90
2023-05-19T18:33:43.554Z,15.70
2023-05-19T18:38:47.990Z,15.60
2023-05-19T18:43:51.406Z,15.30
2023-05-19T18:48:56.254Z,15.10
2023-05-19T18:53:59.753Z,15.20
2023-05-19T18:59:03.948Z,15.10
2023-05-19T19:04:09.479Z,14.90
2023-05-19T19:09:13.939Z,14.70
2023-05-19T19:14:17.397Z,14.70
2023-05-19T19:19:23.852Z,14.40
2023-05-19T19:24:28.532Z,14.30
2023-05-19T19:29:31.926Z,14.10
2023-05-19T19:34:36.691Z,14.00
2023-05-19T19:39:40.227Z,14.00
2023-05-19T19:44:43.555Z,13.80
2023-05-19T19:49:49.279Z,13.60
2023-05-19T19:54:52.751Z,13.40
2023-05-19T19:59:59.133Z,13.20
2023-05-19T20:05:04.508Z,13.10
2023-05-19T20:10:08.269Z,13.00
2023-05-19T20:15:12.254Z,13.00
2023-05-19T20:20:17.373Z,12.90
2023-05-19T20:25:21.435Z,12.80
2023-05-19T20:30:25.014Z,12.90
2023-05-19T20:35:30.169Z,12.60
2023-05-19T20:40:33.634Z,12.30
2023-05-19T20:45:37.356Z,12.00
2023-05-19T20:50:42.223Z,11.80
2023-05-19T20:55:46.329Z,11.70
2023-05-19T21:00:56.968Z,11.60
2023-05-19T21:06:01.863Z,11.40
2023-05-19T21:11:05.793Z,11.30
2023-05-19T21:16:09.340Z,11.30
2023-05-19T21:21:14.013Z,11.20
2023-05-19T21:26:17.486Z,11.00
2023-05-19T21:31:20.932Z,11.00
2023-05-19T21:36:25.698Z,10.90
2023-05-19T21:41:31.096Z,10.70
2023-05-19T21:46:34.356Z,10.60
2023-05-19T21:51:39.155Z,10.50
2023-05-19T21:56:42.773Z,10.40
2023-05-19T22:01:46.798Z,10.30
2023-05-19T22:06:51.627Z,10.30
2023-05-19T22:11:55.422Z,10.10
2023-05-19T22:16:59.062Z,10.00
2023-05-19T22:22:12.939Z,9.80
2023-05-19T22:27:17.691Z,9.80
2023-05-19T22:32:21.269Z,9.90
2023-05-19T22:37:26.160Z,9.70
2023-05-19T22:42:29.646Z,9.80
2023-05-19T22:47:33.118Z,9.90
2023-05-19T22:52:38.331Z,9.80
2023-05-19T22:57:41.655Z,9.70
2023-05-19T23:02:45.106Z,9.90
2023-05-19T23:07:49.841Z,10.00
2023-05-19T23:12:53.639Z,9.90
2023-05-19T23:17:57.349Z,9.90
2023-05-19T23:23:02.740Z,10.10
2023-05-19T23:28:10.126Z,10.30
2023-05-19T23:33:13.550Z,10.10
2023-05-19T23:38:18.323Z,10.20
2023-05-19T23:43:21.646Z,10.20
2023-05-19T23:48:25.443Z,10.20
2023-05-19T23:53:30.187Z,10.10
2023-05-19T23:58:33.567Z,10.20
